Tropical Cyclones
[Index]
Main Index Home Page Stock Weather Photos Extreme Storms Discussion Storm News and Storm Chasing Reports Tropical Cyclones / Hurricanes / Typhoons Weather Data and Links Wild Fires / Bushfires Weather Observation Techniques Weather Picture Catalogue Tornado Pictures and Reports Stock Video Footage and DVDs for sale
Season 1998-1999 Tropical Cyclone HAMISH Track Map
Season 1998-1999 Summaries (Operational Data): [AU] [SIO] [SPAC] [SH]
<<- Previous TC | 1998-1999 Season | Next TC ->>

click for intensity scale information  Lat/long Grid: Show Hide

 Date Labels: Show Hide

Operational Tropical Cyclone Data : JTWC Advisories

Name: HAMISH
Number: 9933

08 Apr 1999 18:00 UTC to 24 Apr 1999 06:00 UTC

    date/time    lat    long     hPa   cat  kts
1999-04-08 18    8.0    85.0    1005                     
1999-04-09 06    7.0    84.0    1005                     
1999-04-10 18    8.0    85.2    1004                     
1999-04-12 18    8.0    85.2    1006                     
1999-04-15 18    9.0    84.0    1006                     
1999-04-16 18   11.0    86.0    1006                     
1999-04-17 18   12.0    90.0    1005                     
1999-04-18 18    8.0    91.0    1005                     
1999-04-19 06    9.5    92.4                             
1999-04-19 10    9.3    92.2    1000         30          
1999-04-19 16    9.3    92.5    1000         30          
1999-04-19 22    9.8    92.6    1000         30          
1999-04-20 04   11.3    93.8     998         33          
1999-04-20 10   13.1    92.4     990    1    40          
1999-04-20 16   13.6    91.9     985    1    45          
1999-04-20 22   13.9    91.3     985    1    45          
1999-04-21 04   15.0    90.5     985    2    55          
1999-04-21 10   15.6    90.4     985    2    55          
1999-04-21 16   16.0    90.1     985    2    50          
1999-04-21 18   15.8    89.4     992    1    35          
1999-04-22 00   16.1    88.6     995         30          
1999-04-22 06   16.4    87.7     997         30          
1999-04-22 12   16.7    87.3     998         28          
1999-04-22 18   16.7    86.7    1000         25          
1999-04-23 00   16.5    86.0    1000         25          
1999-04-23 06   16.2    85.3    1000         25          
1999-04-23 12   16.2    84.8    1002         25          
1999-04-23 18   16.3    84.1    1003         25          
1999-04-24 00   16.4    83.6    1005         25          
1999-04-24 06   16.7    82.8    1007         20          
Winds are 10-min average.

Tropical cyclone tracks developed by Michael Bath using operational warnings and advisories and Google Maps.


[Australian Severe Weather index] [Copyright Notice] [Email Contacts] [Search This Site] [Privacy Policy]
Document: tropical_cyclone_hamish.htm Updated: 28 May 2013